Time;durP1;ratioP1;P1;durP2;ratioP2;P2;SDS_P1;SDS_P2;PMS_P1;PMS_P2;Temp;Humidity;BMP_temperature;BMP_pressure;BME280_temperature;BME280_humidity;BME280_pressure;Samples;Min_cycle;Max_cycle;Signal;HPM_P1;HPM_P2
2022/08/03 00:01:58;;;;;;;2.50;1.30;;;;;;;;;;4987629;28;20057;-61
2022/08/03 00:04:32;;;;;;;4.00;1.60;;;;;;;;;;4983184;28;20060;-59
2022/08/03 00:06:59;;;;;;;3.63;1.65;;;;;;;;;;4986543;28;20058;-60
2022/08/03 00:09:25;;;;;;;5.10;1.60;;;;;;;;;;4982452;28;20058;-62
2022/08/03 00:11:52;;;;;;;4.43;1.70;;;;;;;;;;5002929;28;20050;-62
2022/08/03 00:14:19;;;;;;;2.28;1.40;;;;;;;;;;4980882;28;20059;-62
2022/08/03 00:16:45;;;;;;;3.05;1.45;;;;;;;;;;4986692;28;20058;-63
2022/08/03 00:19:12;;;;;;;2.83;1.38;;;;;;;;;;4985116;28;20064;-62
2022/08/03 00:21:40;;;;;;;6.45;1.58;;;;;;;;;;4987384;28;20254;-61
2022/08/03 00:24:07;;;;;;;4.95;1.58;;;;;;;;;;4987804;28;20055;-62
2022/08/03 00:26:34;;;;;;;5.00;1.63;;;;;;;;;;4982246;28;20116;-62
2022/08/03 00:29:01;;;;;;;5.72;1.50;;;;;;;;;;4987089;28;20051;-61
2022/08/03 00:31:27;;;;;;;3.80;1.50;;;;;;;;;;4981842;28;20057;-63
2022/08/03 00:33:54;;;;;;;2.40;1.30;;;;;;;;;;4987217;28;20062;-63
2022/08/03 00:36:20;;;;;;;3.80;1.50;;;;;;;;;;4982717;28;20050;-62
2022/08/03 00:38:49;;;;;;;4.88;1.45;;;;;;;;;;4988480;28;20112;-61
2022/08/03 00:41:15;;;;;;;4.75;1.30;;;;;;;;;;4985453;28;20051;-62
2022/08/03 00:43:42;;;;;;;5.93;1.40;;;;;;;;;;4990278;28;20054;-62
2022/08/03 00:46:09;;;;;;;3.17;1.55;;;;;;;;;;4984679;28;20047;-60
2022/08/03 00:48:35;;;;;;;4.50;1.55;;;;;;;;;;4990593;28;20055;-63
2022/08/03 00:51:02;;;;;;;3.28;1.23;;;;;;;;;;4984891;28;20050;-62
2022/08/03 00:53:29;;;;;;;7.65;1.30;;;;;;;;;;4990471;28;20054;-62
2022/08/03 00:55:57;;;;;;;3.17;1.38;;;;;;;;;;4985332;28;20058;-62
2022/08/03 00:58:24;;;;;;;4.10;1.65;;;;;;;;;;4991214;28;20058;-63
2022/08/03 01:00:51;;;;;;;3.50;1.48;;;;;;;;;;4986073;28;20058;-62
2022/08/03 01:03:25;;;;;;;4.85;1.75;;;;;;;;;;4991002;28;20108;-58
2022/08/03 01:05:56;;;;;;;2.67;1.42;;;;;;;;;;4989555;28;20061;-59
2022/08/03 01:08:23;;;;;;;4.07;1.48;;;;;;;;;;4987905;28;20050;-61
2022/08/03 01:10:53;;;;;;;3.45;1.35;;;;;;;;;;5010508;28;20104;-61
2022/08/03 01:13:24;;;;;;;3.40;1.40;;;;;;;;;;4987398;28;20061;-59
2022/08/03 01:15:57;;;;;;;2.35;1.20;;;;;;;;;;4991016;28;20129;-62
2022/08/03 01:18:26;;;;;;;4.28;1.23;;;;;;;;;;4985098;28;20058;-61
2022/08/03 01:20:56;;;;;;;2.22;1.10;;;;;;;;;;4990277;28;20050;-61
2022/08/03 01:23:32;;;;;;;2.47;1.20;;;;;;;;;;4997159;28;20054;-62
2022/08/03 01:26:19;;;;;;;4.57;1.10;;;;;;;;;;4990694;28;20054;-62
2022/08/03 01:28:57;;;;;;;3.10;1.20;;;;;;;;;;5000213;28;20073;-60
2022/08/03 01:31:28;;;;;;;3.55;1.38;;;;;;;;;;4989612;28;20081;-61
2022/08/03 01:33:57;;;;;;;3.58;1.30;;;;;;;;;;4983961;28;20050;-61
2022/08/03 01:36:26;;;;;;;2.58;1.10;;;;;;;;;;4988983;28;20054;-61
2022/08/03 01:38:54;;;;;;;3.95;1.00;;;;;;;;;;4983733;28;20049;-59
2022/08/03 01:41:22;;;;;;;3.85;1.50;;;;;;;;;;4988998;28;20056;-58
2022/08/03 01:43:50;;;;;;;4.25;1.25;;;;;;;;;;4983594;28;20054;-58
2022/08/03 01:46:17;;;;;;;2.25;1.05;;;;;;;;;;4989196;28;20046;-59
2022/08/03 01:48:46;;;;;;;6.90;1.43;;;;;;;;;;4983832;28;20073;-61
2022/08/03 01:51:13;;;;;;;3.53;1.25;;;;;;;;;;4988850;28;20062;-60
2022/08/03 01:53:41;;;;;;;2.53;1.05;;;;;;;;;;4984001;28;20056;-60
2022/08/03 01:56:10;;;;;;;3.05;1.20;;;;;;;;;;4989253;28;20116;-61
2022/08/03 01:58:36;;;;;;;;;;;;;;;;;;4984509;28;20112;-62
2022/08/03 02:01:03;;;;;;;4.65;1.60;;;;;;;;;;4989233;28;20016;-59
2022/08/03 02:03:31;;;;;;;2.20;1.13;;;;;;;;;;4980750;28;20051;-61
2022/08/03 02:06:00;;;;;;;2.67;1.05;;;;;;;;;;5011265;28;20073;-59
2022/08/03 02:08:26;;;;;;;;;;;;;;;;;;5004286;28;20057;-62
2022/08/03 02:10:54;;;;;;;1.90;1.00;;;;;;;;;;5053727;28;19928;-60
2022/08/03 02:13:21;;;;;;;;;;;;;;;;;;5030259;28;20046;-59
2022/08/03 02:15:48;;;;;;;2.85;1.00;;;;;;;;;;5020558;28;19925;-59
2022/08/03 02:18:15;;;;;;;2.63;1.02;;;;;;;;;;5028559;28;20049;-60
2022/08/03 02:20:43;;;;;;;3.40;1.38;;;;;;;;;;5016034;28;20100;-59
2022/08/03 02:23:10;;;;;;;2.80;1.20;;;;;;;;;;5042121;28;20053;-59
2022/08/03 02:25:41;;;;;;;2.60;1.17;;;;;;;;;;5006876;28;20072;-58
2022/08/03 02:28:10;;;;;;;5.28;1.20;;;;;;;;;;4988106;28;20093;-59
2022/08/03 02:30:39;;;;;;;2.85;1.00;;;;;;;;;;4988916;28;20050;-61
2022/08/03 02:33:07;;;;;;;3.08;1.10;;;;;;;;;;4985326;28;20149;-60
2022/08/03 02:35:34;;;;;;;;;;;;;;;;;;5010529;28;20253;-60
2022/08/03 02:38:02;;;;;;;2.73;0.90;;;;;;;;;;5014282;28;19925;-58
2022/08/03 02:40:31;;;;;;;3.45;1.00;;;;;;;;;;5029780;28;20080;-60
2022/08/03 02:43:00;;;;;;;5.25;1.13;;;;;;;;;;5018762;28;20046;-59
2022/08/03 02:45:27;;;;;;;1.23;0.90;;;;;;;;;;5027418;28;20060;-61
2022/08/03 02:47:56;;;;;;;3.28;1.23;;;;;;;;;;5022691;28;20737;-59
2022/08/03 02:50:24;;;;;;;2.00;1.00;;;;;;;;;;4999735;28;20137;-58
2022/08/03 02:52:51;;;;;;;3.00;0.97;;;;;;;;;;4989009;28;20050;-59
2022/08/03 02:55:19;;;;;;;5.95;1.00;;;;;;;;;;5002557;28;20304;-60
2022/08/03 02:57:48;;;;;;;2.38;1.10;;;;;;;;;;5041612;28;20152;-60
2022/08/03 03:00:15;;;;;;;4.03;1.00;;;;;;;;;;5010346;28;20053;-59
2022/08/03 03:02:43;;;;;;;1.73;0.90;;;;;;;;;;5026673;28;20057;-59
2022/08/03 03:05:10;;;;;;;2.70;1.30;;;;;;;;;;4993264;28;20054;-58
2022/08/03 03:07:37;;;;;;;2.95;0.93;;;;;;;;;;5007298;28;20057;-59
2022/08/03 03:10:05;;;;;;;2.35;0.93;;;;;;;;;;5002685;28;20049;-61
2022/08/03 03:12:31;;;;;;;3.15;1.27;;;;;;;;;;5017925;28;20061;-59
2022/08/03 03:15:01;;;;;;;6.03;1.40;;;;;;;;;;5006363;28;20050;-60
2022/08/03 03:17:28;;;;;;;4.40;1.23;;;;;;;;;;4994104;28;20046;-59
2022/08/03 03:19:55;;;;;;;2.20;1.10;;;;;;;;;;4997810;28;20057;-59
2022/08/03 03:22:23;;;;;;;5.78;1.10;;;;;;;;;;4990527;28;20049;-59
2022/08/03 03:24:52;;;;;;;3.10;1.15;;;;;;;;;;5007763;28;20053;-61
2022/08/03 03:27:18;;;;;;;3.80;1.10;;;;;;;;;;5012989;28;20115;-61
2022/08/03 03:29:45;;;;;;;5.05;1.00;;;;;;;;;;4987532;28;20054;-62
2022/08/03 03:32:13;;;;;;;4.60;1.20;;;;;;;;;;4985545;28;20070;-62
2022/08/03 03:34:41;;;;;;;2.78;0.93;;;;;;;;;;4987601;28;20054;-62
2022/08/03 03:37:08;;;;;;;2.33;0.90;;;;;;;;;;4988328;28;20117;-62
2022/08/03 03:39:35;;;;;;;3.50;1.20;;;;;;;;;;4983804;28;20050;-59
2022/08/03 03:42:02;;;;;;;2.53;1.00;;;;;;;;;;4987223;28;20145;-62
2022/08/03 03:44:29;;;;;;;2.67;1.13;;;;;;;;;;4983046;28;20061;-61
2022/08/03 03:46:56;;;;;;;4.70;1.30;;;;;;;;;;4987253;28;20121;-63
2022/08/03 03:49:25;;;;;;;4.75;1.10;;;;;;;;;;4984835;28;20072;-62
2022/08/03 03:51:52;;;;;;;3.47;1.15;;;;;;;;;;5004523;28;20058;-62
2022/08/03 03:54:20;;;;;;;3.90;1.20;;;;;;;;;;4987415;28;20137;-63
2022/08/03 03:56:48;;;;;;;2.80;1.02;;;;;;;;;;4998214;28;20050;-63
2022/08/03 03:59:14;;;;;;;3.55;1.02;;;;;;;;;;5002321;28;20117;-63
2022/08/03 04:01:41;;;;;;;6.25;1.50;;;;;;;;;;4989050;28;20058;-62
2022/08/03 04:12:32;;;;;;;5.50;2.08;;;;;;;;;;4991739;28;20074;-62
2022/08/03 04:15:01;;;;;;;4.78;1.55;;;;;;;;;;5009716;28;20060;-59
2022/08/03 04:17:27;;;;;;;;;;;;;;;;;;5022186;28;20070;-60
2022/08/03 04:19:54;;;;;;;3.15;0.93;;;;;;;;;;5010710;28;19932;-59
2022/08/03 04:22:25;;;;;;;5.43;1.55;;;;;;;;;;5004008;28;20133;-61
2022/08/03 04:24:55;;;;;;;4.07;1.50;;;;;;;;;;4989698;28;20061;-59
2022/08/03 04:27:24;;;;;;;3.40;1.38;;;;;;;;;;4991624;28;20120;-59
2022/08/03 04:29:52;;;;;;;3.30;1.33;;;;;;;;;;4987037;28;20090;-59
2022/08/03 04:32:24;;;;;;;8.10;1.90;;;;;;;;;;4990568;28;20113;-58
2022/08/03 04:34:52;;;;;;;6.95;2.08;;;;;;;;;;4986576;28;20058;-59
2022/08/03 04:37:23;;;;;;;5.05;1.63;;;;;;;;;;4999551;28;20062;-60
2022/08/03 04:39:52;;;;;;;8.90;2.60;;;;;;;;;;4997646;28;20138;-60
2022/08/03 04:42:20;;;;;;;11.20;2.17;;;;;;;;;;5010021;28;20058;-58
2022/08/03 04:44:48;;;;;;;;;;;;;;;;;;5025116;28;20108;-59
2022/08/03 04:47:14;;;;;;;2.65;1.33;;;;;;;;;;5022030;28;20007;-59
2022/08/03 04:49:41;;;;;;;14.05;2.58;;;;;;;;;;5025061;28;20053;-58
2022/08/03 04:52:08;;;;;;;9.30;3.20;;;;;;;;;;4997445;28;20046;-60
2022/08/03 04:54:42;;;;;;;9.30;2.92;;;;;;;;;;5016662;28;20059;-60
2022/08/03 04:57:10;;;;;;;3.33;1.27;;;;;;;;;;5008792;28;20060;-58
2022/08/03 04:59:37;;;;;;;5.00;1.30;;;;;;;;;;5005828;28;20104;-62
2022/08/03 05:02:03;;;;;;;6.10;1.73;;;;;;;;;;4988147;28;20050;-59
2022/08/03 05:04:30;;;;;;;8.68;2.15;;;;;;;;;;4990188;28;20045;-58
2022/08/03 05:06:56;;;;;;;4.10;1.20;;;;;;;;;;4994148;28;20120;-58
2022/08/03 05:09:23;;;;;;;14.18;2.80;;;;;;;;;;4979366;28;20108;-59
2022/08/03 05:11:49;;;;;;;6.15;1.42;;;;;;;;;;4988329;28;20108;-59
2022/08/03 05:14:18;;;;;;;11.73;2.63;;;;;;;;;;4975452;28;20057;-58
2022/08/03 05:16:44;;;;;;;;;;;;;;;;;;5020205;28;20062;-58
2022/08/03 05:19:11;;;;;;;3.33;1.27;;;;;;;;;;4981133;28;19933;-59
2022/08/03 05:21:37;;;;;;;6.53;1.88;;;;;;;;;;4988826;28;20049;-59
2022/08/03 05:24:04;;;;;;;4.93;1.92;;;;;;;;;;4994136;28;20119;-60
2022/08/03 05:26:31;;;;;;;5.50;1.92;;;;;;;;;;4984383;28;20046;-59
2022/08/03 05:28:58;;;;;;;6.35;1.40;;;;;;;;;;5036508;28;20049;-59
2022/08/03 05:31:26;;;;;;;11.05;2.63;;;;;;;;;;4999822;28;20053;-62
2022/08/03 05:33:52;;;;;;;11.18;2.03;;;;;;;;;;5008422;28;20061;-59
2022/08/03 05:36:20;;;;;;;14.80;3.22;;;;;;;;;;4999523;28;20050;-59
2022/08/03 05:38:47;;;;;;;15.77;4.87;;;;;;;;;;5005987;28;20058;-59
2022/08/03 05:41:13;;;;;;;3.92;1.63;;;;;;;;;;5003047;28;20050;-62
2022/08/03 05:43:41;;;;;;;12.70;3.92;;;;;;;;;;5007220;28;20053;-62
2022/08/03 05:46:08;;;;;;;5.40;1.92;;;;;;;;;;5009674;28;20065;-61
2022/08/03 05:48:37;;;;;;;3.30;1.33;;;;;;;;;;5017271;28;20064;-61
2022/08/03 05:51:05;;;;;;;;;;;;;;;;;;5017011;28;20049;-59
2022/08/03 05:53:33;;;;;;;9.48;2.22;;;;;;;;;;5003870;28;19921;-61
2022/08/03 05:55:59;;;;;;;7.35;2.22;;;;;;;;;;4986418;28;20073;-62
2022/08/03 05:58:26;;;;;;;6.13;1.65;;;;;;;;;;4986158;28;20060;-61
2022/08/03 06:00:53;;;;;;;9.10;2.60;;;;;;;;;;4988995;28;20053;-62
2022/08/03 06:03:20;;;;;;;5.05;1.70;;;;;;;;;;4987128;28;20065;-61
2022/08/03 06:05:48;;;;;;;7.40;1.95;;;;;;;;;;5002008;28;20073;-60
2022/08/03 06:08:14;;;;;;;6.88;1.90;;;;;;;;;;5008591;28;20053;-62
2022/08/03 06:10:41;;;;;;;6.55;2.22;;;;;;;;;;5002248;28;20045;-61
2022/08/03 06:13:07;;;;;;;9.90;2.15;;;;;;;;;;5008394;28;20081;-59
2022/08/03 06:15:34;;;;;;;7.90;2.53;;;;;;;;;;5001371;28;20046;-62
2022/08/03 06:18:01;;;;;;;6.90;2.75;;;;;;;;;;5008723;28;20045;-62
2022/08/03 06:20:27;;;;;;;14.48;3.13;;;;;;;;;;5000808;28;20097;-62
2022/08/03 06:22:55;;;;;;;10.73;2.70;;;;;;;;;;5021519;28;20062;-63
2022/08/03 06:25:22;;;;;;;8.60;2.42;;;;;;;;;;4984962;28;20054;-62
2022/08/03 06:27:49;;;;;;;8.07;2.25;;;;;;;;;;5007126;28;20107;-62
2022/08/03 06:30:17;;;;;;;8.65;2.88;;;;;;;;;;5008135;28;20054;-61
2022/08/03 06:32:44;;;;;;;7.63;2.30;;;;;;;;;;5002071;28;20061;-62
2022/08/03 06:35:11;;;;;;;4.03;1.70;;;;;;;;;;5007436;28;20069;-62
2022/08/03 06:37:44;;;;;;;10.45;2.70;;;;;;;;;;5001183;28;20062;-61
2022/08/03 06:40:13;;;;;;;10.20;1.83;;;;;;;;;;5007380;28;20062;-62
2022/08/03 06:42:40;;;;;;;7.90;2.53;;;;;;;;;;5002534;28;20045;-62
2022/08/03 06:45:08;;;;;;;8.90;2.05;;;;;;;;;;5007980;28;20057;-62
2022/08/03 06:47:35;;;;;;;4.43;1.67;;;;;;;;;;4995252;28;20061;-62
2022/08/03 06:50:02;;;;;;;4.65;1.73;;;;;;;;;;5007409;28;20195;-62
2022/08/03 06:52:29;;;;;;;11.52;2.80;;;;;;;;;;5001807;28;20045;-62
2022/08/03 06:54:56;;;;;;;13.18;3.10;;;;;;;;;;5007616;28;20141;-62
2022/08/03 06:57:25;;;;;;;12.50;3.13;;;;;;;;;;5002123;28;20116;-62
2022/08/03 06:59:52;;;;;;;9.73;3.03;;;;;;;;;;5007746;28;20073;-63
2022/08/03 07:02:19;;;;;;;10.93;2.88;;;;;;;;;;5001814;28;20140;-60
2022/08/03 07:04:46;;;;;;;8.05;2.35;;;;;;;;;;5008167;28;20081;-60
2022/08/03 07:07:12;;;;;;;10.57;2.95;;;;;;;;;;5005803;28;20076;-62
2022/08/03 07:09:41;;;;;;;9.30;2.03;;;;;;;;;;5011296;28;20068;-62
2022/08/03 07:12:08;;;;;;;7.82;2.03;;;;;;;;;;5006779;28;20135;-62
2022/08/03 07:14:36;;;;;;;15.65;2.53;;;;;;;;;;4999727;28;20076;-62
2022/08/03 07:17:03;;;;;;;7.10;2.33;;;;;;;;;;5010534;28;20045;-62
2022/08/03 07:19:30;;;;;;;14.75;2.63;;;;;;;;;;5004378;28;20049;-62
2022/08/03 07:21:57;;;;;;;8.85;2.20;;;;;;;;;;5011052;28;20049;-62
2022/08/03 07:24:24;;;;;;;7.07;1.60;;;;;;;;;;5005312;28;20045;-61
2022/08/03 07:26:51;;;;;;;10.85;2.20;;;;;;;;;;5011605;28;20045;-63
2022/08/03 07:29:17;;;;;;;6.60;1.95;;;;;;;;;;4992702;28;20054;-61
2022/08/03 07:31:46;;;;;;;6.93;1.77;;;;;;;;;;4996031;28;20116;-62
2022/08/03 07:34:14;;;;;;;11.07;2.60;;;;;;;;;;4992469;28;20054;-62
2022/08/03 07:36:41;;;;;;;13.60;3.50;;;;;;;;;;4990345;28;20163;-61
2022/08/03 07:39:07;;;;;;;6.60;1.85;;;;;;;;;;4984412;28;20225;-61
2022/08/03 07:41:34;;;;;;;13.75;1.92;;;;;;;;;;4990635;28;20058;-61
2022/08/03 07:44:00;;;;;;;7.78;1.88;;;;;;;;;;4985455;28;20050;-62
2022/08/03 07:46:27;;;;;;;9.45;1.83;;;;;;;;;;4990625;28;20066;-62
2022/08/03 07:48:55;;;;;;;6.10;1.60;;;;;;;;;;4983831;28;20049;-62
2022/08/03 07:51:21;;;;;;;5.32;1.70;;;;;;;;;;4989660;28;20058;-63
2022/08/03 07:53:48;;;;;;;4.07;1.50;;;;;;;;;;4985059;28;20053;-62
2022/08/03 07:56:15;;;;;;;7.57;1.85;;;;;;;;;;4988551;28;20069;-62
2022/08/03 07:58:42;;;;;;;10.55;1.65;;;;;;;;;;4990291;28;20112;-62
2022/08/03 08:01:09;;;;;;;14.27;2.22;;;;;;;;;;5002636;28;20053;-60
2022/08/03 08:03:37;;;;;;;11.77;2.10;;;;;;;;;;5005970;28;20140;-61
2022/08/03 08:06:03;;;;;;;;;;;;;;;;;;5004833;28;20072;-62
2022/08/03 08:08:31;;;;;;;14.65;1.92;;;;;;;;;;5006420;28;19921;-63
2022/08/03 08:10:59;;;;;;;8.80;1.90;;;;;;;;;;5000341;28;20054;-60
2022/08/03 08:13:25;;;;;;;14.27;2.60;;;;;;;;;;5009419;28;20152;-62
2022/08/03 08:15:52;;;;;;;15.07;2.10;;;;;;;;;;5003941;28;20065;-62
2022/08/03 08:18:19;;;;;;;18.52;2.50;;;;;;;;;;5010035;28;20061;-62
2022/08/03 08:20:46;;;;;;;7.32;1.63;;;;;;;;;;5001325;28;20049;-62
2022/08/03 08:23:13;;;;;;;12.73;1.83;;;;;;;;;;5007015;28;20127;-64
2022/08/03 08:25:43;;;;;;;10.77;2.13;;;;;;;;;;5004597;28;20076;-63
2022/08/03 08:28:10;;;;;;;11.23;2.10;;;;;;;;;;5009911;28;20052;-60
2022/08/03 08:30:37;;;;;;;14.98;2.10;;;;;;;;;;5006514;28;20053;-58
2022/08/03 08:33:04;;;;;;;14.65;2.30;;;;;;;;;;5008232;28;20054;-59
2022/08/03 08:35:31;;;;;;;9.25;1.88;;;;;;;;;;4994826;28;20053;-59
2022/08/03 08:37:59;;;;;;;23.55;1.95;;;;;;;;;;5009889;28;20045;-62
2022/08/03 08:40:27;;;;;;;15.82;2.40;;;;;;;;;;5009755;28;20065;-59
2022/08/03 08:42:55;;;;;;;18.17;2.75;;;;;;;;;;5004060;28;20037;-63
2022/08/03 08:45:22;;;;;;;18.88;2.20;;;;;;;;;;5009079;28;20037;-61
2022/08/03 08:47:49;;;;;;;8.68;2.08;;;;;;;;;;5004241;28;20057;-61
2022/08/03 08:50:18;;;;;;;17.65;2.35;;;;;;;;;;5027082;28;20041;-62
2022/08/03 08:52:46;;;;;;;12.98;2.05;;;;;;;;;;4993019;28;20132;-62
2022/08/03 08:55:15;;;;;;;18.33;2.17;;;;;;;;;;5009550;28;20061;-61
2022/08/03 08:57:45;;;;;;;7.15;1.90;;;;;;;;;;5002837;28;20073;-63
2022/08/03 09:00:14;;;;;;;14.07;1.90;;;;;;;;;;5009285;28;20140;-61
2022/08/03 09:02:41;;;;;;;15.95;2.00;;;;;;;;;;5007600;28;20060;-62
2022/08/03 09:05:10;;;;;;;15.23;2.17;;;;;;;;;;5012590;28;20060;-59
2022/08/03 09:07:37;;;;;;;14.45;1.77;;;;;;;;;;5007540;28;20149;-60
2022/08/03 09:10:04;;;;;;;12.05;1.75;;;;;;;;;;5013069;28;20050;-60
2022/08/03 09:12:31;;;;;;;19.75;2.20;;;;;;;;;;5008110;28;20053;-62
2022/08/03 09:15:15;;;;;;;13.70;2.03;;;;;;;;;;5007283;28;20064;-58
2022/08/03 09:17:43;;;;;;;22.55;2.13;;;;;;;;;;4989828;28;20049;-62
2022/08/03 09:20:11;;;;;;;17.85;2.08;;;;;;;;;;4993300;28;20052;-62
2022/08/03 09:22:51;;;;;;;17.08;2.15;;;;;;;;;;4986396;28;20121;-58
2022/08/03 09:25:18;;;;;;;10.52;1.88;;;;;;;;;;5005923;28;20069;-59
2022/08/03 09:27:45;;;;;;;20.10;2.13;;;;;;;;;;5007717;28;20048;-58
2022/08/03 09:30:15;;;;;;;9.55;2.00;;;;;;;;;;5004543;28;20116;-58
2022/08/03 09:32:43;;;;;;;12.80;1.80;;;;;;;;;;5006824;28;20061;-59
2022/08/03 09:35:12;;;;;;;11.63;2.10;;;;;;;;;;4998431;28;20053;-59
2022/08/03 09:37:39;;;;;;;11.38;2.13;;;;;;;;;;4993462;28;20425;-62
2022/08/03 09:40:06;;;;;;;10.70;1.58;;;;;;;;;;4987471;28;20057;-63
2022/08/03 09:42:36;;;;;;;7.85;1.77;;;;;;;;;;4993090;28;20054;-62
2022/08/03 09:45:04;;;;;;;15.70;2.35;;;;;;;;;;5002724;28;20054;-63
2022/08/03 09:47:31;;;;;;;15.27;2.00;;;;;;;;;;5030356;28;20103;-61
2022/08/03 09:50:00;;;;;;;14.17;2.43;;;;;;;;;;5007327;28;20041;-61
2022/08/03 09:52:32;;;;;;;12.00;1.70;;;;;;;;;;5010250;28;20078;-61
2022/08/03 09:54:59;;;;;;;21.83;2.10;;;;;;;;;;4994760;28;20112;-62
2022/08/03 09:57:26;;;;;;;19.98;3.13;;;;;;;;;;5010035;28;20053;-63
2022/08/03 09:59:57;;;;;;;10.93;1.80;;;;;;;;;;5020948;28;20123;-62
2022/08/03 10:02:24;;;;;;;12.73;1.92;;;;;;;;;;5007835;28;20061;-63
2022/08/03 10:04:51;;;;;;;19.02;2.63;;;;;;;;;;4992539;28;20092;-63
2022/08/03 10:07:18;;;;;;;18.27;1.80;;;;;;;;;;5008014;28;20100;-61
2022/08/03 10:09:54;;;;;;;13.02;1.70;;;;;;;;;;5000228;28;20050;-63
2022/08/03 10:12:21;;;;;;;12.30;1.92;;;;;;;;;;5025389;28;20049;-61
2022/08/03 10:14:48;;;;;;;8.68;1.80;;;;;;;;;;5023165;28;20050;-63
2022/08/03 10:17:15;;;;;;;9.48;1.80;;;;;;;;;;5005298;28;20153;-64
2022/08/03 10:19:41;;;;;;;12.07;1.98;;;;;;;;;;5008850;28;20042;-63
2022/08/03 10:22:10;;;;;;;10.57;1.70;;;;;;;;;;5002407;28;20335;-64
2022/08/03 10:24:41;;;;;;;5.85;1.40;;;;;;;;;;5008311;28;20112;-60
2022/08/03 10:27:11;;;;;;;17.25;2.30;;;;;;;;;;5001565;28;20054;-62
2022/08/03 10:29:38;;;;;;;14.77;1.98;;;;;;;;;;5008609;28;20053;-61
2022/08/03 10:32:10;;;;;;;11.63;1.65;;;;;;;;;;5001708;28;20058;-61
2022/08/03 10:34:42;;;;;;;8.68;1.67;;;;;;;;;;4999434;28;20058;-60
2022/08/03 10:37:10;;;;;;;15.98;2.58;;;;;;;;;;5007783;28;20054;-61
2022/08/03 10:39:37;;;;;;;19.25;2.75;;;;;;;;;;5004681;28;20061;-60
2022/08/03 10:42:05;;;;;;;17.98;2.10;;;;;;;;;;5024413;28;20058;-61
2022/08/03 10:44:37;;;;;;;9.50;1.90;;;;;;;;;;5018925;28;20057;-62
2022/08/03 10:47:04;;;;;;;8.82;1.73;;;;;;;;;;5008039;28;20138;-58
2022/08/03 10:49:31;;;;;;;13.20;1.85;;;;;;;;;;5000945;28;20054;-61
2022/08/03 10:51:57;;;;;;;10.70;1.70;;;;;;;;;;5008021;28;20060;-60
2022/08/03 10:57:44;;;;;;;12.00;1.77;;;;;;;;;;5042473;28;20053;-62
2022/08/03 11:00:13;;;;;;;13.63;2.08;;;;;;;;;;5003747;28;20112;-62
2022/08/03 11:02:58;;;;;;;12.55;2.03;;;;;;;;;;5008184;28;20129;-62
2022/08/03 11:05:25;;;;;;;12.88;1.73;;;;;;;;;;5003413;28;20058;-57
2022/08/03 11:08:17;;;;;;;14.77;2.40;;;;;;;;;;5004791;28;20046;-62
2022/08/03 11:10:45;;;;;;;9.32;2.00;;;;;;;;;;5008076;28;20112;-59
2022/08/03 11:13:15;;;;;;;12.50;2.63;;;;;;;;;;5002740;28;20058;-61
2022/08/03 11:15:45;;;;;;;6.40;1.90;;;;;;;;;;5024390;28;20141;-58
2022/08/03 11:18:12;;;;;;;11.25;2.05;;;;;;;;;;5000970;28;20061;-62
2022/08/03 11:20:49;;;;;;;9.73;1.80;;;;;;;;;;5006737;28;20062;-61
2022/08/03 11:23:17;;;;;;;7.63;1.50;;;;;;;;;;5001563;28;20077;-61
2022/08/03 11:26:03;;;;;;;11.85;1.90;;;;;;;;;;5007125;28;20061;-62
2022/08/03 11:28:29;;;;;;;10.75;1.85;;;;;;;;;;5001637;28;20057;-60
2022/08/03 11:31:18;;;;;;;11.27;1.67;;;;;;;;;;5007364;28;20058;-59
2022/08/03 11:34:02;;;;;;;15.07;2.15;;;;;;;;;;4989895;28;20042;-61
2022/08/03 11:36:29;;;;;;;12.23;2.03;;;;;;;;;;5005175;28;20053;-62
2022/08/03 11:39:14;;;;;;;18.30;1.55;;;;;;;;;;5001694;28;20053;-62
2022/08/03 11:41:41;;;;;;;11.75;1.77;;;;;;;;;;4989464;28;20057;-61
2022/08/03 11:44:09;;;;;;;10.30;1.52;;;;;;;;;;5018247;28;20050;-63
2022/08/03 11:46:38;;;;;;;8.80;1.63;;;;;;;;;;5024259;28;20112;-63
2022/08/03 11:49:06;;;;;;;10.40;1.58;;;;;;;;;;4987267;28;20133;-63
2022/08/03 11:51:32;;;;;;;9.98;1.92;;;;;;;;;;4989588;28;20045;-62
2022/08/03 11:54:00;;;;;;;9.35;1.60;;;;;;;;;;4984487;28;20069;-62
2022/08/03 11:56:28;;;;;;;6.20;1.77;;;;;;;;;;5023081;28;20053;-64
2022/08/03 11:58:55;;;;;;;13.67;1.93;;;;;;;;;;5002815;28;20058;-63
2022/08/03 12:01:22;;;;;;;8.60;1.73;;;;;;;;;;4989889;28;20304;-62
2022/08/03 12:03:52;;;;;;;7.80;2.00;;;;;;;;;;5001803;28;20152;-63
2022/08/03 12:06:19;;;;;;;15.07;1.80;;;;;;;;;;5002967;28;20054;-62
2022/08/03 12:08:46;;;;;;;12.35;1.95;;;;;;;;;;4987488;28;20054;-62
2022/08/03 12:11:13;;;;;;;11.73;1.90;;;;;;;;;;4981420;28;20137;-60
2022/08/03 12:13:41;;;;;;;13.55;2.00;;;;;;;;;;4987339;28;20057;-61
2022/08/03 12:16:09;;;;;;;9.48;1.80;;;;;;;;;;4981352;28;20057;-60
2022/08/03 12:18:35;;;;;;;11.18;1.52;;;;;;;;;;4987190;28;20054;-62
2022/08/03 12:21:08;;;;;;;14.13;1.92;;;;;;;;;;4998081;28;20050;-60
2022/08/03 12:23:35;;;;;;;17.23;1.95;;;;;;;;;;5003696;28;20082;-62
2022/08/03 12:26:02;;;;;;;7.47;1.65;;;;;;;;;;4997563;28;20058;-62
2022/08/03 12:28:29;;;;;;;16.48;2.05;;;;;;;;;;4987486;28;20088;-63
2022/08/03 12:30:55;;;;;;;6.18;1.45;;;;;;;;;;4981675;28;20050;-63
2022/08/03 12:33:23;;;;;;;14.20;1.95;;;;;;;;;;4988329;28;20058;-63
2022/08/03 12:36:01;;;;;;;9.32;1.50;;;;;;;;;;4983093;28;20057;-60
2022/08/03 12:38:29;;;;;;;16.05;1.92;;;;;;;;;;4991143;28;20055;-61
2022/08/03 12:41:00;;;;;;;7.68;1.52;;;;;;;;;;4985330;28;20048;-63
2022/08/03 12:43:27;;;;;;;7.13;1.83;;;;;;;;;;5007181;28;20053;-63
2022/08/03 12:46:06;;;;;;;12.82;1.77;;;;;;;;;;4986326;28;20056;-62
2022/08/03 12:48:34;;;;;;;12.93;1.35;;;;;;;;;;5007048;28;20050;-60
2022/08/03 12:51:08;;;;;;;6.37;1.40;;;;;;;;;;5000961;28;20321;-62
2022/08/03 12:53:35;;;;;;;8.63;1.60;;;;;;;;;;5006386;28;20050;-63
2022/08/03 12:56:02;;;;;;;5.78;1.35;;;;;;;;;;5001783;28;20112;-59
2022/08/03 12:58:32;;;;;;;9.70;1.75;;;;;;;;;;5007165;28;20058;-62
2022/08/03 13:00:58;;;;;;;13.43;1.60;;;;;;;;;;4992582;28;20054;-63
2022/08/03 13:03:25;;;;;;;6.90;1.50;;;;;;;;;;4989425;28;20065;-61
2022/08/03 13:05:52;;;;;;;7.75;1.25;;;;;;;;;;4990001;28;20050;-63
2022/08/03 13:08:19;;;;;;;6.07;1.77;;;;;;;;;;4984464;28;20054;-62
2022/08/03 13:10:47;;;;;;;5.00;1.37;;;;;;;;;;5005947;28;20053;-63
2022/08/03 13:13:14;;;;;;;9.00;1.38;;;;;;;;;;4984346;28;20320;-62
2022/08/03 13:15:40;;;;;;;7.43;1.27;;;;;;;;;;5006245;28;20065;-59
2022/08/03 13:18:08;;;;;;;5.93;0.90;;;;;;;;;;5000089;28;20057;-59
2022/08/03 13:20:35;;;;;;;6.10;1.08;;;;;;;;;;5005637;28;20057;-60
2022/08/03 13:23:01;;;;;;;8.15;1.23;;;;;;;;;;4974948;28;20058;-60
2022/08/03 13:25:29;;;;;;;3.88;1.52;;;;;;;;;;5005090;28;20039;-58
2022/08/03 13:27:57;;;;;;;5.75;1.45;;;;;;;;;;4999512;28;20058;-63
2022/08/03 13:30:23;;;;;;;;;;;;;;;;;;4989128;28;20054;-63
2022/08/03 13:32:50;;;;;;;5.82;1.23;;;;;;;;;;4985602;28;19937;-61
2022/08/03 13:35:17;;;;;;;3.38;0.93;;;;;;;;;;4989747;28;20093;-61
2022/08/03 13:37:44;;;;;;;5.85;1.67;;;;;;;;;;4984915;28;20054;-59
2022/08/03 13:40:11;;;;;;;5.45;1.30;;;;;;;;;;5005707;28;20145;-63
2022/08/03 13:42:37;;;;;;;4.13;1.40;;;;;;;;;;5000487;28;20050;-63
2022/08/03 13:45:07;;;;;;;3.60;1.13;;;;;;;;;;4989755;28;20085;-58
2022/08/03 13:47:35;;;;;;;7.60;1.55;;;;;;;;;;5005799;28;20474;-62
2022/08/03 13:50:02;;;;;;;5.82;1.70;;;;;;;;;;4983562;28;20081;-61
2022/08/03 13:52:29;;;;;;;6.20;1.50;;;;;;;;;;5005798;28;20058;-62
2022/08/03 13:54:57;;;;;;;4.50;1.35;;;;;;;;;;4983666;28;20050;-64
2022/08/03 13:57:23;;;;;;;6.20;1.50;;;;;;;;;;5006211;28;20058;-62
2022/08/03 13:59:50;;;;;;;6.05;1.50;;;;;;;;;;4982656;28;20056;-63
2022/08/03 14:02:18;;;;;;;5.75;1.40;;;;;;;;;;4989559;28;20058;-64
2022/08/03 14:04:44;;;;;;;;;;;;;;;;;;4979043;28;20080;-63
2022/08/03 14:07:13;;;;;;;7.55;1.25;;;;;;;;;;4990230;28;19926;-63
2022/08/03 14:09:40;;;;;;;7.53;1.90;;;;;;;;;;4983524;28;20054;-63
2022/08/03 14:12:06;;;;;;;8.30;1.58;;;;;;;;;;5004369;28;20066;-62
2022/08/03 14:14:35;;;;;;;6.45;1.30;;;;;;;;;;4999497;28;20077;-61
2022/08/03 14:17:02;;;;;;;6.10;1.38;;;;;;;;;;4989061;28;20061;-62
2022/08/03 14:19:30;;;;;;;4.03;1.40;;;;;;;;;;4983377;28;20056;-63
2022/08/03 14:21:57;;;;;;;6.40;1.58;;;;;;;;;;4988157;28;20078;-63
2022/08/03 14:24:24;;;;;;;5.90;1.50;;;;;;;;;;4983730;28;20054;-62
2022/08/03 14:26:50;;;;;;;4.68;1.08;;;;;;;;;;4989342;28;20050;-63
2022/08/03 14:29:17;;;;;;;3.25;1.40;;;;;;;;;;4987349;28;20058;-60
2022/08/03 14:31:43;;;;;;;5.03;1.40;;;;;;;;;;4985564;28;20129;-62
2022/08/03 14:34:11;;;;;;;6.22;1.40;;;;;;;;;;5004699;28;20064;-62
2022/08/03 14:36:42;;;;;;;2.88;1.00;;;;;;;;;;4999063;28;20065;-63
2022/08/03 14:39:08;;;;;;;4.00;1.23;;;;;;;;;;4985735;28;20133;-63
2022/08/03 14:41:35;;;;;;;5.07;1.23;;;;;;;;;;4982595;28;20054;-61
2022/08/03 14:44:02;;;;;;;4.43;1.27;;;;;;;;;;5005055;28;20116;-62
2022/08/03 14:46:29;;;;;;;4.45;1.30;;;;;;;;;;4999155;28;20078;-62
2022/08/03 14:48:55;;;;;;;4.10;1.30;;;;;;;;;;5004655;28;20051;-63
2022/08/03 14:51:22;;;;;;;2.67;1.25;;;;;;;;;;4998658;28;20378;-62
2022/08/03 14:53:50;;;;;;;4.43;1.23;;;;;;;;;;5003745;28;20078;-63
2022/08/03 14:56:18;;;;;;;2.92;1.10;;;;;;;;;;4997865;28;20054;-63
2022/08/03 14:58:44;;;;;;;2.83;1.02;;;;;;;;;;5004344;28;20061;-62
2022/08/03 15:01:11;;;;;;;4.00;1.30;;;;;;;;;;4998260;28;20046;-63